createdAt,value
2023-08-29T00:01:49.258Z,71.72
2023-08-29T00:04:17.998Z,70.70
2023-08-29T00:06:46.674Z,69.64
2023-08-29T00:09:15.331Z,71.41
2023-08-29T00:11:45.060Z,72.43
2023-08-29T00:14:13.843Z,71.65
2023-08-29T00:16:42.566Z,71.97
2023-08-29T00:19:11.589Z,71.52
2023-08-29T00:21:40.304Z,71.08
2023-08-29T00:24:12.374Z,71.98
2023-08-29T00:26:42.527Z,72.71
2023-08-29T00:29:11.171Z,72.43
2023-08-29T00:31:40.343Z,71.80
2023-08-29T00:34:09.088Z,71.29
2023-08-29T00:36:37.812Z,70.27
2023-08-29T00:39:06.608Z,70.49
2023-08-29T00:41:35.439Z,69.96
2023-08-29T00:44:04.625Z,69.14
2023-08-29T00:46:33.357Z,68.77
2023-08-29T00:49:02.399Z,68.80
2023-08-29T00:51:31.173Z,69.52
2023-08-29T00:54:00.072Z,68.63
2023-08-29T00:56:29.089Z,68.28
2023-08-29T00:58:57.934Z,69.25
2023-08-29T01:01:27.428Z,69.11
2023-08-29T01:03:58.562Z,69.58
2023-08-29T01:06:27.701Z,69.61
2023-08-29T01:08:56.451Z,70.74
2023-08-29T01:11:41.536Z,70.49
2023-08-29T01:14:39.155Z,69.74
2023-08-29T01:17:40.970Z,69.55
2023-08-29T01:20:12.062Z,70.43
2023-08-29T01:23:20.879Z,70.27
2023-08-29T01:26:13.767Z,68.86
2023-08-29T01:28:46.127Z,69.42
2023-08-29T01:31:15.265Z,69.41
2023-08-29T01:33:44.598Z,69.20
2023-08-29T01:36:13.350Z,68.67
2023-08-29T01:38:42.104Z,68.78
2023-08-29T01:41:10.935Z,68.90
2023-08-29T01:43:39.629Z,68.74
2023-08-29T01:46:08.440Z,68.85
2023-08-29T01:48:38.809Z,68.39
2023-08-29T01:51:07.579Z,69.37
2023-08-29T01:53:36.297Z,69.80
2023-08-29T01:56:05.351Z,69.38
2023-08-29T01:58:36.245Z,70.29
2023-08-29T02:01:21.058Z,71.18
2023-08-29T02:03:52.834Z,71.28
2023-08-29T02:06:22.220Z,70.66
2023-08-29T02:08:51.022Z,71.00
2023-08-29T02:11:19.676Z,72.32
2023-08-29T02:13:48.384Z,74.58
2023-08-29T02:16:17.114Z,74.73
2023-08-29T02:18:45.780Z,75.78
2023-08-29T02:21:14.717Z,77.25
2023-08-29T02:23:43.373Z,77.70
2023-08-29T02:26:12.075Z,78.94
2023-08-29T02:28:40.887Z,80.72
2023-08-29T02:31:10.991Z,80.53
2023-08-29T02:33:40.120Z,80.68
2023-08-29T02:36:08.884Z,82.14
2023-08-29T02:38:37.607Z,84.51
2023-08-29T02:41:12.831Z,84.67
2023-08-29T02:43:41.467Z,85.35
2023-08-29T02:46:10.167Z,85.78
2023-08-29T02:48:38.845Z,84.75
2023-08-29T02:51:08.001Z,86.40
2023-08-29T02:53:36.805Z,87.32
2023-08-29T02:56:05.673Z,87.11
2023-08-29T02:58:34.372Z,89.19
2023-08-29T03:01:04.687Z,89.96
2023-08-29T03:03:33.690Z,89.03
2023-08-29T03:06:02.526Z,87.73
2023-08-29T03:08:31.968Z,87.78
2023-08-29T03:11:07.854Z,87.17
2023-08-29T03:13:36.631Z,87.07
2023-08-29T03:16:18.082Z,88.01
2023-08-29T03:18:48.659Z,86.99
2023-08-29T03:21:17.458Z,87.80
2023-08-29T03:23:46.413Z,86.60
2023-08-29T03:26:15.219Z,86.56
2023-08-29T03:28:45.232Z,84.70
2023-08-29T03:31:17.269Z,86.05
2023-08-29T03:33:46.196Z,86.71
2023-08-29T03:36:15.519Z,86.41
2023-08-29T03:38:44.882Z,85.83
2023-08-29T03:41:13.671Z,86.53
2023-08-29T03:43:43.861Z,87.62
2023-08-29T03:46:12.723Z,88.35
2023-08-29T03:48:42.507Z,89.52
2023-08-29T03:51:11.202Z,90.83
2023-08-29T03:53:40.009Z,91.59
2023-08-29T03:56:11.177Z,91.69
2023-08-29T03:58:40.019Z,92.20
2023-08-29T04:01:10.842Z,92.93
2023-08-29T04:03:39.736Z,93.23
2023-08-29T04:06:08.886Z,93.80
2023-08-29T04:08:37.568Z,94.46
2023-08-29T04:11:07.684Z,93.91
2023-08-29T04:13:36.332Z,94.30
2023-08-29T04:16:06.725Z,93.71
2023-08-29T04:18:35.454Z,94.70
2023-08-29T04:21:04.384Z,94.75
2023-08-29T04:23:33.055Z,93.46
2023-08-29T04:26:02.538Z,93.22
2023-08-29T04:28:31.430Z,93.03
2023-08-29T04:31:11.152Z,93.16
2023-08-29T04:33:40.709Z,93.55
2023-08-29T04:36:10.443Z,93.04
2023-08-29T04:38:39.821Z,92.23
2023-08-29T04:41:08.494Z,91.56
2023-08-29T04:43:37.193Z,91.04
2023-08-29T04:46:08.753Z,90.72
2023-08-29T04:48:38.248Z,89.42
2023-08-29T04:51:07.001Z,88.21
2023-08-29T04:53:35.693Z,86.91
2023-08-29T04:56:06.098Z,84.78
2023-08-29T04:58:38.246Z,84.54
2023-08-29T05:01:07.247Z,82.15
2023-08-29T05:03:36.556Z,81.59
2023-08-29T05:06:05.927Z,79.08
2023-08-29T05:08:37.628Z,78.63
2023-08-29T05:11:07.162Z,76.78
2023-08-29T05:13:35.894Z,74.83
2023-08-29T05:16:05.840Z,75.03
2023-08-29T05:18:34.809Z,73.81
2023-08-29T05:21:03.578Z,72.64
2023-08-29T05:23:32.353Z,72.14
2023-08-29T05:26:01.079Z,71.63
2023-08-29T05:28:30.195Z,70.53
2023-08-29T05:30:58.986Z,70.43
2023-08-29T05:33:27.728Z,70.08
2023-08-29T05:35:56.399Z,69.35
2023-08-29T05:38:26.875Z,69.17
2023-08-29T05:40:56.967Z,68.35
2023-08-29T05:43:25.869Z,67.65
2023-08-29T05:45:57.378Z,67.38
2023-08-29T05:48:26.344Z,66.81
2023-08-29T05:50:55.317Z,66.63
2023-08-29T05:53:23.987Z,66.77
2023-08-29T05:55:52.996Z,66.29
2023-08-29T05:58:23.092Z,66.25
2023-08-29T06:00:52.569Z,65.58
2023-08-29T06:03:23.267Z,65.19
2023-08-29T06:05:52.612Z,64.41
2023-08-29T06:08:21.602Z,63.99
2023-08-29T06:10:50.371Z,63.90
2023-08-29T06:13:19.084Z,63.77
2023-08-29T06:15:47.736Z,63.04
2023-08-29T06:18:16.434Z,62.99
2023-08-29T06:20:45.134Z,61.17
2023-08-29T06:23:14.478Z,60.59
2023-08-29T06:25:43.212Z,60.93
2023-08-29T06:28:11.960Z,60.41
2023-08-29T06:30:40.830Z,58.84
2023-08-29T06:33:09.806Z,59.19
2023-08-29T06:35:39.684Z,58.99
2023-08-29T06:38:09.593Z,58.98
2023-08-29T06:40:39.006Z,58.75
2023-08-29T06:43:07.812Z,56.38
2023-08-29T06:45:36.501Z,56.50
2023-08-29T06:48:06.294Z,56.27
2023-08-29T06:50:36.181Z,56.18
2023-08-29T06:53:05.541Z,56.00
2023-08-29T06:55:36.327Z,55.18
2023-08-29T06:58:06.552Z,54.51
2023-08-29T07:00:35.837Z,54.16
2023-08-29T07:03:05.825Z,53.68
2023-08-29T07:05:35.318Z,53.52
2023-08-29T07:08:05.593Z,53.49
2023-08-29T07:10:34.930Z,53.62
2023-08-29T07:13:05.318Z,51.60
2023-08-29T07:15:34.079Z,51.03
2023-08-29T07:18:07.067Z,50.97
2023-08-29T07:20:36.276Z,49.81
2023-08-29T07:23:05.842Z,50.85
2023-08-29T07:25:44.933Z,50.21
2023-08-29T07:28:15.027Z,49.71
2023-08-29T07:30:47.203Z,49.38
2023-08-29T07:33:16.664Z,48.91
2023-08-29T07:35:48.134Z,47.73
2023-08-29T07:38:19.208Z,47.51
2023-08-29T07:40:48.822Z,47.41
2023-08-29T07:43:17.670Z,47.70
2023-08-29T07:45:47.785Z,46.98
2023-08-29T07:48:16.552Z,46.17
2023-08-29T07:50:45.462Z,46.26
2023-08-29T07:53:14.867Z,46.25
2023-08-29T07:55:43.680Z,45.63
2023-08-29T07:58:14.922Z,45.48
2023-08-29T08:00:44.123Z,45.16
2023-08-29T08:03:12.874Z,45.32
2023-08-29T08:05:42.142Z,44.50
2023-08-29T08:08:10.958Z,44.48
2023-08-29T08:10:39.666Z,43.97
2023-08-29T08:13:08.522Z,43.45
2023-08-29T08:15:37.238Z,43.42
2023-08-29T08:18:06.516Z,43.61
2023-08-29T08:20:37.793Z,42.66
2023-08-29T08:23:08.334Z,41.77
2023-08-29T08:25:40.344Z,42.28
2023-08-29T08:28:09.443Z,41.87
2023-08-29T08:30:38.880Z,40.68
2023-08-29T08:33:08.270Z,40.46
2023-08-29T08:35:41.495Z,40.71
2023-08-29T08:38:17.181Z,40.41
2023-08-29T08:40:45.935Z,39.55
2023-08-29T08:43:15.609Z,39.64
2023-08-29T08:45:44.727Z,39.56
2023-08-29T08:48:13.857Z,38.88
2023-08-29T08:50:45.754Z,37.13
2023-08-29T08:53:16.443Z,36.60
2023-08-29T08:55:45.375Z,36.00
2023-08-29T08:58:14.961Z,35.68
2023-08-29T09:00:43.660Z,35.94
2023-08-29T09:03:15.264Z,35.97
2023-08-29T09:05:44.600Z,35.44
2023-08-29T09:08:13.401Z,35.09
2023-08-29T09:10:42.608Z,34.97
2023-08-29T09:13:20.730Z,35.30
2023-08-29T09:15:49.651Z,35.28
2023-08-29T09:18:32.748Z,35.65
2023-08-29T09:21:02.366Z,35.55
2023-08-29T09:23:38.726Z,34.99
2023-08-29T09:26:12.109Z,34.88
2023-08-29T09:28:41.915Z,34.08
2023-08-29T09:31:16.811Z,34.13
2023-08-29T09:33:48.377Z,34.15
2023-08-29T09:36:17.357Z,33.79
2023-08-29T09:38:46.468Z,33.99
2023-08-29T09:41:15.905Z,34.29
2023-08-29T09:43:49.248Z,33.81
2023-08-29T09:46:27.505Z,33.49
2023-08-29T09:48:57.073Z,33.43
2023-08-29T09:51:27.637Z,33.08
2023-08-29T09:53:59.352Z,32.68
2023-08-29T09:56:30.597Z,32.38
2023-08-29T09:59:02.993Z,32.12
2023-08-29T10:01:32.173Z,32.34
2023-08-29T10:04:07.481Z,32.36
2023-08-29T10:06:38.739Z,32.35
2023-08-29T10:09:08.323Z,32.11
2023-08-29T10:11:48.910Z,32.09
2023-08-29T10:14:24.688Z,32.04
2023-08-29T10:16:55.380Z,31.95
2023-08-29T10:19:24.206Z,31.52
2023-08-29T10:21:54.813Z,31.40
2023-08-29T10:24:24.609Z,30.98
2023-08-29T10:26:53.605Z,30.81
2023-08-29T10:29:22.548Z,30.69
2023-08-29T10:31:51.740Z,30.57
2023-08-29T10:34:21.586Z,30.39
2023-08-29T10:36:51.381Z,30.15
2023-08-29T10:39:21.178Z,30.04
2023-08-29T10:41:55.301Z,29.41
2023-08-29T10:44:33.175Z,29.40
2023-08-29T10:47:47.906Z,28.99
2023-08-29T10:50:27.156Z,28.96
2023-08-29T10:52:57.848Z,28.85
2023-08-29T10:55:33.382Z,28.74
2023-08-29T10:58:32.022Z,29.07
2023-08-29T11:01:01.070Z,28.89
2023-08-29T11:03:50.251Z,28.39
2023-08-29T11:06:20.620Z,27.52
2023-08-29T11:08:49.792Z,27.47
2023-08-29T11:11:23.336Z,27.69
2023-08-29T11:14:05.411Z,27.79
2023-08-29T11:16:36.775Z,28.27
2023-08-29T11:19:16.200Z,27.85
2023-08-29T11:21:48.098Z,27.85
2023-08-29T11:24:17.602Z,27.22
2023-08-29T11:26:47.959Z,25.91
2023-08-29T11:29:17.676Z,25.48
2023-08-29T11:31:47.403Z,26.58
2023-08-29T11:34:22.059Z,26.62
2023-08-29T11:36:52.694Z,26.68
2023-08-29T11:39:23.081Z,26.25
2023-08-29T11:42:02.882Z,26.13
2023-08-29T11:45:45.759Z,25.78
2023-08-29T11:47:30.352Z,25.62
2023-08-29T11:49:59.234Z,25.75
2023-08-29T11:52:28.051Z,25.68
2023-08-29T11:55:01.696Z,25.30
2023-08-29T11:57:31.560Z,25.19
2023-08-29T12:00:00.349Z,25.38
2023-08-29T12:02:30.419Z,25.28
2023-08-29T12:04:59.482Z,24.53
2023-08-29T12:07:35.022Z,24.77
2023-08-29T12:10:11.780Z,24.57
2023-08-29T12:12:40.951Z,24.55
2023-08-29T12:15:27.223Z,24.98
2023-08-29T12:17:56.578Z,24.48
2023-08-29T12:20:25.350Z,24.02
2023-08-29T12:22:54.472Z,24.48
2023-08-29T12:25:23.256Z,24.93
2023-08-29T12:27:52.168Z,24.56
2023-08-29T12:30:21.779Z,24.39
2023-08-29T12:32:50.883Z,24.30
2023-08-29T12:35:20.394Z,24.53
2023-08-29T12:37:50.029Z,24.22
2023-08-29T12:40:19.119Z,24.81
2023-08-29T12:42:50.700Z,25.13
2023-08-29T12:45:20.281Z,25.90
2023-08-29T12:47:49.458Z,26.35
2023-08-29T12:50:18.519Z,26.57
2023-08-29T12:52:47.348Z,26.43
2023-08-29T12:55:16.187Z,26.68
2023-08-29T12:57:45.521Z,26.60
2023-08-29T13:00:15.046Z,26.98
2023-08-29T13:02:44.740Z,26.70
2023-08-29T13:05:14.482Z,25.99
2023-08-29T13:07:43.247Z,25.20
2023-08-29T13:10:13.181Z,24.11
2023-08-29T13:12:41.965Z,23.91
2023-08-29T13:15:13.781Z,23.99
2023-08-29T13:17:42.529Z,23.75
2023-08-29T13:20:11.437Z,23.70
2023-08-29T13:22:41.395Z,23.45
2023-08-29T13:25:10.333Z,23.44
2023-08-29T13:27:39.340Z,23.17
2023-08-29T13:30:09.731Z,22.79
2023-08-29T13:32:38.575Z,22.60
2023-08-29T13:35:07.811Z,22.37
2023-08-29T13:37:36.594Z,22.07
2023-08-29T13:40:06.684Z,22.68
2023-08-29T13:42:35.866Z,22.39
2023-08-29T13:45:05.970Z,22.25
2023-08-29T13:47:34.761Z,21.85
2023-08-29T13:50:03.921Z,21.80
2023-08-29T13:52:33.033Z,21.60
2023-08-29T13:55:02.456Z,21.24
2023-08-29T13:57:32.208Z,20.64
2023-08-29T14:00:01.021Z,20.34
2023-08-29T14:02:30.178Z,21.15
2023-08-29T14:04:59.065Z,21.57
2023-08-29T14:07:27.811Z,21.28
2023-08-29T14:09:56.843Z,21.11
2023-08-29T14:12:26.118Z,21.00
2023-08-29T14:14:55.654Z,21.54
2023-08-29T14:17:24.915Z,22.20
2023-08-29T14:19:54.571Z,23.83
2023-08-29T14:22:23.504Z,24.59
2023-08-29T14:24:52.363Z,24.97
2023-08-29T14:27:21.237Z,25.14
2023-08-29T14:29:50.125Z,25.44
2023-08-29T14:32:19.897Z,25.70
2023-08-29T14:34:48.799Z,25.88
2023-08-29T14:37:17.701Z,25.57
2023-08-29T14:39:48.134Z,25.54
2023-08-29T14:42:17.128Z,26.02
2023-08-29T14:44:46.011Z,25.00
2023-08-29T14:47:14.750Z,24.36
2023-08-29T14:49:43.390Z,23.72
2023-08-29T14:52:12.140Z,23.38
2023-08-29T14:54:40.864Z,23.05
2023-08-29T14:57:09.658Z,22.85
2023-08-29T14:59:41.075Z,23.33
2023-08-29T15:02:09.871Z,23.23
2023-08-29T15:04:38.598Z,23.45
2023-08-29T15:07:07.331Z,23.18
2023-08-29T15:09:35.977Z,23.83
2023-08-29T15:12:05.829Z,24.02
2023-08-29T15:14:34.515Z,24.27
2023-08-29T15:17:04.958Z,24.10
2023-08-29T15:19:36.356Z,24.13
2023-08-29T15:22:05.275Z,25.29
2023-08-29T15:24:33.964Z,25.88
2023-08-29T15:27:02.704Z,27.49
2023-08-29T15:29:31.515Z,30.87
2023-08-29T15:32:00.249Z,33.42
2023-08-29T15:34:30.394Z,35.46
2023-08-29T15:36:59.599Z,38.26
2023-08-29T15:39:28.257Z,38.69
2023-08-29T15:41:59.703Z,39.94
2023-08-29T15:44:34.726Z,44.11
2023-08-29T15:47:05.599Z,48.78
2023-08-29T15:49:34.753Z,51.80
2023-08-29T15:52:04.273Z,53.24
2023-08-29T15:54:33.171Z,52.26
2023-08-29T15:57:04.082Z,51.25
2023-08-29T15:59:33.012Z,49.77
2023-08-29T16:02:01.738Z,49.74
2023-08-29T16:04:31.930Z,51.95
2023-08-29T16:07:00.886Z,54.85
2023-08-29T16:09:31.898Z,55.98
2023-08-29T16:12:00.616Z,55.47
2023-08-29T16:14:30.215Z,55.39
2023-08-29T16:16:59.108Z,57.91
2023-08-29T16:19:28.055Z,60.02
2023-08-29T16:21:56.849Z,61.16
2023-08-29T16:24:25.611Z,63.78
2023-08-29T16:26:54.321Z,64.46
2023-08-29T16:29:23.092Z,64.31
2023-08-29T16:31:51.782Z,68.03
2023-08-29T16:34:20.515Z,71.29
2023-08-29T16:36:49.340Z,69.55
2023-08-29T16:39:18.363Z,67.82
2023-08-29T16:41:52.017Z,67.62
2023-08-29T16:44:20.739Z,69.33
2023-08-29T16:46:49.507Z,69.61
2023-08-29T16:49:18.642Z,68.53
2023-08-29T16:51:47.594Z,68.76
2023-08-29T16:54:16.616Z,70.44
2023-08-29T16:56:46.061Z,70.15
2023-08-29T16:59:15.010Z,69.27
2023-08-29T17:01:43.953Z,69.61
2023-08-29T17:04:12.690Z,70.34
2023-08-29T17:06:41.504Z,71.45
2023-08-29T17:09:10.349Z,70.66
2023-08-29T17:11:39.149Z,70.00
2023-08-29T17:14:08.202Z,70.08
2023-08-29T17:16:37.016Z,70.53
2023-08-29T17:19:05.784Z,70.55
2023-08-29T17:21:34.963Z,70.87
2023-08-29T17:24:04.048Z,69.42
2023-08-29T17:26:32.955Z,69.23
2023-08-29T17:29:02.150Z,70.65
2023-08-29T17:31:31.623Z,71.28
2023-08-29T17:34:00.352Z,70.46
2023-08-29T17:36:29.030Z,70.72
2023-08-29T17:38:57.693Z,71.72
2023-08-29T17:41:29.485Z,71.90
2023-08-29T17:43:58.147Z,71.99
2023-08-29T17:46:26.913Z,72.03
2023-08-29T17:48:55.652Z,72.63
2023-08-29T17:51:24.425Z,72.80
2023-08-29T17:53:53.141Z,72.86
2023-08-29T17:56:23.362Z,72.63
2023-08-29T17:58:52.584Z,73.00
2023-08-29T18:01:21.373Z,73.56
2023-08-29T18:03:50.238Z,73.64
2023-08-29T18:06:25.190Z,74.76
2023-08-29T18:08:56.268Z,75.45
2023-08-29T18:11:25.065Z,74.71
2023-08-29T18:13:53.923Z,76.51
2023-08-29T18:16:22.704Z,79.66
2023-08-29T18:18:51.529Z,82.32
2023-08-29T18:21:20.230Z,81.87
2023-08-29T18:23:49.195Z,81.46
2023-08-29T18:26:17.975Z,80.92
2023-08-29T18:28:46.695Z,83.06
2023-08-29T18:31:15.476Z,83.71
2023-08-29T18:33:44.735Z,84.28
2023-08-29T18:36:13.573Z,83.35
2023-08-29T18:38:42.343Z,81.39
2023-08-29T18:41:11.401Z,83.11
2023-08-29T18:43:40.288Z,87.18
2023-08-29T18:46:09.385Z,87.77
2023-08-29T18:48:38.168Z,87.81
2023-08-29T18:51:06.857Z,87.24
2023-08-29T18:53:35.730Z,84.77
2023-08-29T18:56:04.758Z,87.33
2023-08-29T18:58:36.449Z,88.86
2023-08-29T19:01:06.277Z,88.51
2023-08-29T19:03:35.401Z,89.93
2023-08-29T19:06:13.045Z,90.50
2023-08-29T19:08:43.503Z,90.97
2023-08-29T19:11:15.756Z,90.41
2023-08-29T19:13:44.318Z,89.52
2023-08-29T19:16:13.018Z,89.05
2023-08-29T19:18:41.761Z,89.48
2023-08-29T19:21:10.487Z,88.07
2023-08-29T19:23:39.218Z,87.23
2023-08-29T19:26:07.979Z,85.75
2023-08-29T19:28:36.767Z,85.16
2023-08-29T19:31:05.574Z,84.77
2023-08-29T19:33:34.446Z,84.20
2023-08-29T19:36:18.020Z,83.56
2023-08-29T19:38:47.000Z,84.31
2023-08-29T19:41:15.811Z,83.97
2023-08-29T19:43:44.773Z,83.37
2023-08-29T19:46:14.509Z,84.15
2023-08-29T19:48:43.827Z,83.12
2023-08-29T19:51:12.616Z,83.09
2023-08-29T19:53:41.282Z,82.03
2023-08-29T19:56:15.832Z,81.74
2023-08-29T19:58:44.893Z,80.87
2023-08-29T20:01:13.725Z,80.53
2023-08-29T20:03:43.287Z,80.23
2023-08-29T20:06:15.342Z,80.77
2023-08-29T20:08:44.305Z,80.63
2023-08-29T20:11:13.062Z,80.60
2023-08-29T20:13:41.736Z,80.49
2023-08-29T20:16:10.440Z,80.97
2023-08-29T20:18:40.969Z,81.09
2023-08-29T20:21:09.752Z,80.91
2023-08-29T20:23:47.956Z,80.89
2023-08-29T20:26:24.772Z,80.63
2023-08-29T20:28:53.454Z,81.36
2023-08-29T20:31:22.847Z,81.28
2023-08-29T20:33:51.616Z,80.90
2023-08-29T20:36:20.341Z,80.82
2023-08-29T20:38:49.198Z,80.71
2023-08-29T20:41:17.979Z,80.05
2023-08-29T20:43:46.769Z,80.15
2023-08-29T20:46:16.255Z,80.96
2023-08-29T20:48:50.977Z,81.42
2023-08-29T20:51:20.336Z,81.29
2023-08-29T20:53:49.956Z,81.29
2023-08-29T20:56:19.003Z,81.14
2023-08-29T20:58:48.519Z,81.54
2023-08-29T21:01:17.473Z,82.44
2023-08-29T21:03:47.105Z,81.40
2023-08-29T21:06:19.239Z,80.90
2023-08-29T21:08:47.937Z,81.51
2023-08-29T21:11:19.344Z,81.89
2023-08-29T21:13:48.195Z,81.06
2023-08-29T21:16:16.934Z,83.40
2023-08-29T21:18:45.628Z,83.74
2023-08-29T21:21:14.361Z,83.41
2023-08-29T21:23:44.565Z,84.07
2023-08-29T21:26:13.561Z,86.87
2023-08-29T21:28:45.395Z,87.51
2023-08-29T21:31:16.108Z,88.38
2023-08-29T21:33:44.979Z,89.43
2023-08-29T21:36:13.800Z,89.31
2023-08-29T21:38:45.322Z,89.96
2023-08-29T21:41:15.715Z,89.31
2023-08-29T21:43:44.390Z,90.28
2023-08-29T21:46:13.110Z,90.00
2023-08-29T21:48:42.035Z,90.20
2023-08-29T21:51:14.108Z,89.92
2023-08-29T21:53:42.986Z,90.47
2023-08-29T21:56:12.233Z,90.56
2023-08-29T21:58:41.257Z,90.92
2023-08-29T22:01:12.581Z,90.95
2023-08-29T22:03:42.792Z,91.33
2023-08-29T22:06:11.647Z,91.39
2023-08-29T22:08:40.706Z,90.42
2023-08-29T22:11:09.405Z,89.48
2023-08-29T22:13:38.138Z,88.65
2023-08-29T22:16:07.210Z,87.83
2023-08-29T22:18:36.008Z,87.06
2023-08-29T22:21:08.831Z,87.24
2023-08-29T22:23:37.579Z,87.22
2023-08-29T22:26:10.110Z,86.78
2023-08-29T22:28:39.523Z,86.10
2023-08-29T22:31:08.561Z,85.89
2023-08-29T22:33:37.394Z,85.83
2023-08-29T22:36:06.499Z,85.99
2023-08-29T22:38:35.174Z,85.87
2023-08-29T22:41:21.282Z,86.03
2023-08-29T22:43:57.698Z,86.04
2023-08-29T22:46:26.397Z,86.18
2023-08-29T22:48:55.065Z,86.64
2023-08-29T22:51:23.931Z,87.19
2023-08-29T22:53:52.617Z,86.88
2023-08-29T22:56:21.378Z,86.47
2023-08-29T22:58:50.150Z,86.52
2023-08-29T23:01:20.687Z,86.36
2023-08-29T23:03:49.452Z,86.67
2023-08-29T23:06:23.134Z,86.73
2023-08-29T23:08:52.038Z,87.24
2023-08-29T23:11:20.739Z,87.61
2023-08-29T23:13:49.429Z,88.03
2023-08-29T23:16:18.165Z,87.43
2023-08-29T23:18:47.257Z,87.57
2023-08-29T23:21:16.610Z,87.98
2023-08-29T23:23:46.430Z,88.09
2023-08-29T23:26:18.376Z,87.97
2023-08-29T23:28:47.815Z,88.38
2023-08-29T23:31:16.659Z,88.83
2023-08-29T23:33:54.331Z,88.80
2023-08-29T23:36:23.472Z,89.31
2023-08-29T23:38:52.711Z,89.34
2023-08-29T23:41:21.539Z,89.18
2023-08-29T23:43:50.266Z,89.39
2023-08-29T23:46:19.106Z,89.55
2023-08-29T23:48:47.874Z,89.67
2023-08-29T23:51:17.103Z,90.20
2023-08-29T23:53:46.508Z,90.59
2023-08-29T23:56:18.646Z,90.20
2023-08-29T23:58:47.447Z,90.66
